Impacts TAF Board
For situational awareness. Not to be used for flight planning purposes.
IDs:

KAGC - Pittsburgh/Allegheny, PA, US

Issued at 1902 UTC 02 Oct 2022
Updated at 1958 UTC 02 Oct 2022
Potential Impact None Slight Moderate High
Time1953Z 02/20Z 02/21Z 02/22Z 02/23Z 03/00Z 03/01Z 03/02Z 03/03Z 03/04Z 03/05Z 03/06Z 03/07Z 03/08Z>>
Type OBS PRVL PRVL PRVL PRVL PRVL PRVL PRVL PRVL PRVL PRVL PRVL PRVL PRVL
VIS 10 >6 >6 >6 >6 >6 >6 >6 >6 >6 >6 >6 >6 >6
CIG 26 50 50 50 50 -- -- -- -- -- -- -- -- --
Cover OVC BKN BKN BKN BKN SKC SKC SKC SKC SKC SKC SKC SKC SKC
FltCat MVFR VFR VFR VFR VFR VFR VFR VFR VFR VFR VFR VFR VFR VFR
WX -- -- -- -- -- -- -- -- -- -- -- -- -- --
WDir VRB 30 30 30 30 20 20 20 20 20 20 20 20 20
WSpd 4 8 8 8 8 5 5 5 5 5 5 5 5 5
WGst -- -- -- -- -- -- -- -- -- -- -- -- -- --
WSHgt -- -- -- -- -- -- -- -- -- -- -- -- -- --
WSDir -- -- -- -- -- -- -- -- -- -- -- -- -- --
WSSpd -- -- -- -- -- -- -- -- -- -- -- -- -- --
Raw TAF
KAGC 021902Z 0219/0318 03008KT P6SM BKN050
  FM030000 02005KT P6SM SKC


Raw METAR
KAGC 021953Z VRB04KT 10SM OVC026 16/11 A3014 RMK AO2 RAB37E46 SLP212 P0000 T01560111
KAGC 021936Z VRB04KT 10SM BKN027 BKN032 OVC075 16/10 A3014 RMK AO2 T01560100
KAGC 021853Z VRB03KT 10SM SCT055 OVC070 15/10 A3013 RMK AO2 SLP209 T01500100
KAGC 021842Z 05008KT 10SM SCT030 OVC055 15/10 A3014 RMK AO2 T01500100
KAGC 021753Z VRB04KT 10SM OVC023 13/10 A3014 RMK AO2 SLP214 60004 T01330100 10133 20106 51008
KAGC 021653Z VRB04KT 10SM OVC019 13/11 A3014 RMK AO2 SLP211 T01280106

METAR Board
Radar Display
Forecast Discussion
For situational awareness. Not to be used for flight planning purposes.